Time;durP1;ratioP1;P1;durP2;ratioP2;P2;SDS_P1;SDS_P2;PMS_P1;PMS_P2;Temp;Humidity;BMP_temperature;BMP_pressure;BME280_temperature;BME280_humidity;BME280_pressure;Samples;Min_cycle;Max_cycle;Signal;HPM_P1;HPM_P2
2021/11/15 00:01:15;;;;;;;19.70;10.05;;;11.70;83.20;;;;;;5033162;28;20028;-80
2021/11/15 00:03:42;;;;;;;19.02;8.55;;;11.70;83.30;;;;;;5034823;28;20411;-80
2021/11/15 00:06:08;;;;;;;17.92;9.85;;;11.60;83.50;;;;;;5034673;28;20068;-80
2021/11/15 00:08:34;;;;;;;20.02;8.98;;;11.70;83.40;;;;;;5055023;28;20484;-80
2021/11/15 00:11:00;;;;;;;19.17;9.00;;;11.70;83.20;;;;;;5054454;28;20102;-80
2021/11/15 00:13:25;;;;;;;17.35;9.38;;;11.70;83.20;;;;;;5054698;28;20036;-80
2021/11/15 00:15:51;;;;;;;17.55;9.20;;;11.70;83.20;;;;;;5045081;28;20037;-80
2021/11/15 00:18:17;;;;;;;17.73;9.30;;;11.60;83.10;;;;;;5034793;28;20025;-80
2021/11/15 00:20:43;;;;;;;19.77;8.98;;;11.60;83.10;;;;;;5033682;28;20022;-80
2021/11/15 00:23:08;;;;;;;17.45;9.52;;;11.60;83.20;;;;;;5033432;28;20033;-80
2021/11/15 00:25:34;;;;;;;21.23;8.98;;;11.60;83.20;;;;;;5034332;28;20028;-80
2021/11/15 00:28:00;;;;;;;19.27;9.27;;;11.50;83.10;;;;;;5034457;28;20037;-80
2021/11/15 00:30:26;;;;;;;17.77;9.10;;;11.50;83.10;;;;;;5033726;28;20026;-80
2021/11/15 00:32:51;;;;;;;21.20;9.98;;;11.50;83.20;;;;;;5033247;28;20355;-80
2021/11/15 00:35:17;;;;;;;20.33;10.73;;;11.50;83.30;;;;;;5033832;28;20036;-80
2021/11/15 00:37:43;;;;;;;18.02;9.05;;;11.40;83.50;;;;;;5034476;28;20022;-79
2021/11/15 00:40:12;;;;;;;17.50;8.98;;;11.30;83.70;;;;;;5033836;28;20025;-80
2021/11/15 00:42:38;;;;;;;20.52;10.38;;;11.30;83.70;;;;;;5034120;28;20025;-80
2021/11/15 00:45:05;;;;;;;18.90;9.25;;;11.30;84.00;;;;;;5033751;28;20033;-80
2021/11/15 00:47:31;;;;;;;20.50;10.93;;;11.20;83.70;;;;;;5035932;28;20049;-80
2021/11/15 00:49:56;;;;;;;21.23;10.98;;;11.20;84.10;;;;;;5037807;28;20037;-80
2021/11/15 00:52:22;;;;;;;20.30;10.20;;;11.20;84.20;;;;;;5037930;28;20061;-80
2021/11/15 00:54:49;;;;;;;24.08;9.95;;;11.20;84.10;;;;;;5038088;28;20484;-80
2021/11/15 00:57:15;;;;;;;23.52;11.05;;;11.20;84.20;;;;;;5038211;28;20027;-80
2021/11/15 00:59:43;;;;;;;22.52;10.35;;;11.10;84.20;;;;;;5037757;28;20017;-79
2021/11/15 01:02:09;;;;;;;21.45;10.57;;;11.10;84.40;;;;;;5053495;28;20032;-80
2021/11/15 01:04:34;;;;;;;21.02;10.10;;;11.10;84.30;;;;;;5057871;28;20124;-80
2021/11/15 01:07:00;;;;;;;21.65;10.30;;;11.10;84.10;;;;;;5051855;28;20040;-80
2021/11/15 01:09:26;;;;;;;22.73;10.55;;;11.10;84.10;;;;;;5058034;28;20445;-80
2021/11/15 01:11:53;;;;;;;22.25;10.55;;;11.00;84.10;;;;;;5058085;28;20021;-80
2021/11/15 01:14:20;;;;;;;23.67;10.10;;;10.90;84.30;;;;;;5045099;28;20064;-80
2021/11/15 01:16:52;;;;;;;24.63;10.88;;;10.90;84.30;;;;;;5038313;28;20037;-80
2021/11/15 01:19:18;;;;;;;24.92;11.98;;;10.80;84.20;;;;;;5038961;28;20479;-80
2021/11/15 01:21:45;;;;;;;24.25;10.60;;;10.80;84.50;;;;;;5038302;28;20033;-80
2021/11/15 01:24:11;;;;;;;22.42;11.07;;;10.80;84.30;;;;;;5038723;28;20029;-80
2021/11/15 01:26:37;;;;;;;25.67;11.77;;;10.90;84.20;;;;;;5038684;28;20088;-80
2021/11/15 01:29:04;;;;;;;22.08;11.32;;;10.90;83.90;;;;;;5037844;28;20021;-80
2021/11/15 01:31:30;;;;;;;20.73;11.30;;;10.90;84.20;;;;;;5037628;28;20036;-80
2021/11/15 01:34:01;;;;;;;23.05;11.25;;;10.80;84.00;;;;;;5037709;28;20025;-80
2021/11/15 01:36:27;;;;;;;24.67;11.15;;;10.70;84.30;;;;;;5037559;28;20029;-80
2021/11/15 01:38:53;;;;;;;25.42;11.85;;;10.70;84.50;;;;;;5037025;28;20026;-80
2021/11/15 01:41:19;;;;;;;27.08;11.63;;;10.80;84.30;;;;;;5037140;28;20036;-80
2021/11/15 01:43:45;;;;;;;23.23;11.23;;;10.80;84.20;;;;;;5036959;28;20506;-80
2021/11/15 01:46:11;;;;;;;27.85;12.18;;;10.80;84.00;;;;;;5037415;28;20033;-80
2021/11/15 01:48:37;;;;;;;23.85;11.88;;;10.70;84.30;;;;;;5069656;28;20026;-80
2021/11/15 01:51:03;;;;;;;25.60;12.35;;;10.70;84.10;;;;;;5036715;28;20451;-80
2021/11/15 01:53:29;;;;;;;27.55;11.65;;;10.60;84.20;;;;;;5037169;28;20029;-80
2021/11/15 01:55:54;;;;;;;22.85;13.02;;;10.70;84.00;;;;;;5037116;28;20033;-80
2021/11/15 01:58:20;;;;;;;29.00;12.48;;;10.70;83.80;;;;;;5036686;28;20018;-80
2021/11/15 02:00:53;;;;;;;30.50;14.35;;;10.70;83.70;;;;;;5036224;28;20108;-80
2021/11/15 02:03:19;;;;;;;32.42;15.43;;;10.60;83.80;;;;;;5037011;28;20021;-80
2021/11/15 02:05:46;;;;;;;35.42;14.82;;;10.60;84.20;;;;;;5036434;28;20057;-80
2021/11/15 02:08:12;;;;;;;33.60;15.65;;;10.60;83.80;;;;;;5053866;28;20025;-80
2021/11/15 02:10:39;;;;;;;33.35;14.48;;;10.60;83.40;;;;;;5056823;28;20035;-80
2021/11/15 02:13:05;;;;;;;28.88;13.88;;;10.60;83.30;;;;;;5040007;28;20032;-80
2021/11/15 02:15:32;;;;;;;30.63;13.98;;;10.60;83.40;;;;;;5036118;28;20135;-80
2021/11/15 02:17:58;;;;;;;27.40;12.18;;;10.50;83.40;;;;;;5036444;28;20072;-80
2021/11/15 02:20:42;;;;;;;29.67;14.15;;;10.40;83.20;;;;;;5036716;28;20026;-80
2021/11/15 02:23:07;;;;;;;30.55;14.30;;;10.50;83.40;;;;;;5036775;28;20468;-80
2021/11/15 02:25:34;;;;;;;24.58;11.63;;;10.50;83.30;;;;;;5067564;28;20060;-80
2021/11/15 02:28:00;;;;;;;27.48;11.93;;;10.30;82.70;;;;;;5036821;28;20108;-80
2021/11/15 02:30:33;;;;;;;27.00;13.32;;;10.40;82.80;;;;;;5035903;28;20034;-80
2021/11/15 02:33:01;;;;;;;27.92;13.00;;;10.30;82.50;;;;;;5036492;28;20048;-80
2021/11/15 02:35:27;;;;;;;26.90;12.70;;;10.30;82.60;;;;;;5035254;28;20087;-80
2021/11/15 02:37:53;;;;;;;29.58;14.25;;;10.30;82.50;;;;;;5036484;28;20535;-80
2021/11/15 02:40:21;;;;;;;33.05;14.75;;;10.30;82.00;;;;;;5035722;28;20542;-80
2021/11/15 02:42:48;;;;;;;43.72;16.35;;;10.20;82.30;;;;;;5036339;28;20022;-80
2021/11/15 02:45:17;;;;;;;34.83;14.27;;;10.20;82.60;;;;;;5036215;28;20068;-80
2021/11/15 02:47:47;;;;;;;27.10;12.43;;;10.20;82.50;;;;;;5035622;28;20053;-80
2021/11/15 02:50:17;;;;;;;32.20;13.75;;;10.20;82.10;;;;;;5036556;28;20025;-80
2021/11/15 02:52:49;;;;;;;36.22;15.85;;;10.20;82.70;;;;;;5066989;28;20037;-80
2021/11/15 02:55:15;;;;;;;38.00;16.27;;;10.10;82.50;;;;;;5036034;28;20116;-80
2021/11/15 02:57:41;;;;;;;36.33;16.00;;;10.10;82.80;;;;;;5067302;28;20049;-80
2021/11/15 03:00:28;;;;;;;43.13;16.60;;;10.10;83.00;;;;;;5035996;28;20033;-80
2021/11/15 03:02:56;;;;;;;35.65;15.43;;;10.10;83.00;;;;;;5035176;28;20049;-79
2021/11/15 03:05:24;;;;;;;44.35;16.73;;;10.20;82.80;;;;;;5036105;28;20103;-80
2021/11/15 03:07:49;;;;;;;39.65;15.32;;;10.10;82.80;;;;;;5050656;28;20021;-80
2021/11/15 03:10:27;;;;;;;38.92;16.30;;;10.10;82.70;;;;;;5046353;28;20033;-80
2021/11/15 03:12:53;;;;;;;46.25;17.75;;;10.00;82.90;;;;;;5035768;28;20060;-80
2021/11/15 03:15:31;;;;;;;39.20;15.93;;;10.10;83.00;;;;;;5034500;28;20025;-80
2021/11/15 03:18:03;;;;;;;45.58;16.65;;;10.10;83.00;;;;;;5034991;28;20049;-80
2021/11/15 03:20:32;;;;;;;48.22;18.10;;;10.00;83.00;;;;;;5015783;28;20022;-80
2021/11/15 03:22:58;;;;;;;41.55;15.98;;;10.00;83.40;;;;;;5015848;28;20104;-80
2021/11/15 03:25:29;;;;;;;38.67;15.68;;;10.00;83.10;;;;;;5020781;28;20033;-80
2021/11/15 03:27:57;;;;;;;43.55;16.17;;;10.00;82.90;;;;;;5035267;28;20025;-80
2021/11/15 03:30:24;;;;;;;35.75;14.10;;;10.00;82.90;;;;;;5066850;28;20033;-81
2021/11/15 03:32:51;;;;;;;38.70;15.27;;;10.00;82.50;;;;;;5034853;28;20034;-80
2021/11/15 03:35:17;;;;;;;37.50;16.13;;;10.00;82.60;;;;;;5035279;28;20026;-80
2021/11/15 03:37:44;;;;;;;45.03;17.35;;;9.90;82.50;;;;;;5035311;28;20476;-80
2021/11/15 03:40:15;;;;;;;36.33;15.75;;;9.90;82.50;;;;;;5035245;28;20029;-80
2021/11/15 03:42:43;;;;;;;32.17;14.63;;;9.80;82.10;;;;;;5034481;28;20044;-80
2021/11/15 03:45:10;;;;;;;34.40;14.02;;;9.80;81.70;;;;;;5034982;28;20448;-80
2021/11/15 03:47:36;;;;;;;40.22;15.73;;;9.70;81.90;;;;;;5035341;28;20380;-80
2021/11/15 03:50:26;;;;;;;31.17;14.10;;;9.70;81.50;;;;;;5034519;28;20029;-80
2021/11/15 03:52:54;;;;;;;40.10;17.37;;;9.70;81.40;;;;;;5035159;28;20045;-80
2021/11/15 03:55:22;;;;;;;37.10;17.10;;;9.70;81.90;;;;;;5035006;28;20294;-80
2021/11/15 03:57:49;;;;;;;41.47;16.27;;;9.70;81.90;;;;;;5034896;28;20029;-80
2021/11/15 04:00:20;;;;;;;37.40;15.40;;;9.60;81.50;;;;;;5034283;28;20124;-80
2021/11/15 04:02:50;;;;;;;;;;;9.60;81.40;;;;;;5034674;28;20112;-80
2021/11/15 04:05:23;;;;;;;34.25;14.52;;;9.50;81.40;;;;;;5034599;28;19921;-80
2021/11/15 04:07:49;;;;;;;50.38;17.55;;;9.50;82.00;;;;;;5034240;28;20071;-80
2021/11/15 04:10:29;;;;;;;40.42;16.42;;;9.60;82.20;;;;;;5035021;28;20029;-80
2021/11/15 04:13:11;;;;;;;44.58;18.02;;;9.60;82.20;;;;;;5067188;28;20029;-80
2021/11/15 04:15:38;;;;;;;47.38;18.15;;;9.60;82.30;;;;;;5066835;28;20048;-80
2021/11/15 04:18:06;;;;;;;44.97;16.85;;;9.60;82.20;;;;;;5034030;28;20052;-80
2021/11/15 04:20:32;;;;;;;36.95;16.52;;;9.60;82.10;;;;;;5035046;28;20028;-80
2021/11/15 04:22:58;;;;;;;41.25;16.27;;;9.60;82.00;;;;;;5038370;28;20030;-80
2021/11/15 04:25:24;;;;;;;40.55;17.23;;;9.60;82.00;;;;;;5053713;28;20622;-80
2021/11/15 04:27:50;;;;;;;38.80;16.10;;;9.60;81.80;;;;;;5038418;28;20041;-80
2021/11/15 04:30:16;;;;;;;39.92;15.63;;;9.70;81.70;;;;;;5039927;28;20029;-79
2021/11/15 04:32:43;;;;;;;40.75;15.45;;;9.50;81.70;;;;;;5040088;28;20029;-80
2021/11/15 04:35:11;;;;;;;39.65;15.60;;;9.50;81.70;;;;;;5039325;28;20029;-80
2021/11/15 04:37:38;;;;;;;36.15;15.63;;;9.50;81.70;;;;;;5040214;28;20044;-80
2021/11/15 04:40:06;;;;;;;41.00;16.27;;;9.50;81.60;;;;;;5039418;28;20022;-80
2021/11/15 04:42:33;;;;;;;42.20;15.95;;;9.40;81.10;;;;;;5038401;28;20022;-80
2021/11/15 04:44:59;;;;;;;37.97;16.77;;;9.40;81.80;;;;;;5038343;28;20108;-80
2021/11/15 04:47:25;;;;;;;39.13;15.30;;;9.40;81.80;;;;;;5037763;28;20024;-81
2021/11/15 04:49:51;;;;;;;31.75;14.05;;;9.40;81.80;;;;;;5038416;28;20089;-80
2021/11/15 04:52:17;;;;;;;37.17;14.32;;;9.40;81.50;;;;;;5038337;28;20100;-81
2021/11/15 04:54:43;;;;;;;38.47;15.50;;;9.30;81.70;;;;;;5038373;28;20033;-80
2021/11/15 04:57:09;;;;;;;36.92;15.07;;;9.30;81.70;;;;;;5037560;28;20083;-80
2021/11/15 04:59:35;;;;;;;40.15;15.55;;;9.30;81.70;;;;;;5057858;28;20052;-81
2021/11/15 05:02:00;;;;;;;37.83;15.40;;;9.30;81.60;;;;;;5038239;28;20036;-80
2021/11/15 05:04:26;;;;;;;32.92;14.85;;;9.20;81.80;;;;;;5038077;28;20503;-80
2021/11/15 05:06:52;;;;;;;31.95;14.70;;;9.30;81.80;;;;;;5043244;28;20063;-80
2021/11/15 05:09:18;;;;;;;32.63;15.30;;;9.20;81.90;;;;;;5056715;28;20017;-81
2021/11/15 05:11:43;;;;;;;32.35;14.48;;;9.20;81.80;;;;;;5058101;28;20517;-80
2021/11/15 05:14:09;;;;;;;33.85;15.30;;;9.10;81.60;;;;;;5057862;28;20450;-80
2021/11/15 05:16:35;;;;;;;35.70;15.50;;;9.10;81.50;;;;;;5042746;28;20040;-80
2021/11/15 05:19:01;;;;;;;38.50;14.75;;;9.10;81.50;;;;;;5070185;28;20373;-80
2021/11/15 05:21:29;;;;;;;37.00;14.52;;;8.90;82.40;;;;;;5038248;28;20037;-80
2021/11/15 05:23:55;;;;;;;36.42;15.57;;;9.00;82.50;;;;;;5037834;28;20021;-80
2021/11/15 05:26:23;;;;;;;37.63;16.98;;;9.10;82.60;;;;;;5037230;28;20096;-80
2021/11/15 05:28:49;;;;;;;42.83;17.85;;;9.10;83.00;;;;;;5037708;28;20048;-80
2021/11/15 05:31:15;;;;;;;43.10;17.63;;;9.20;83.40;;;;;;5036811;28;20433;-80
2021/11/15 05:33:41;;;;;;;45.78;17.88;;;9.30;83.30;;;;;;5035010;28;20099;-80
2021/11/15 05:36:07;;;;;;;40.92;17.30;;;9.30;83.10;;;;;;5037565;28;20017;-80
2021/11/15 05:38:35;;;;;;;50.45;18.33;;;9.30;83.60;;;;;;5037490;28;20018;-80
2021/11/15 05:41:01;;;;;;;48.30;17.63;;;9.40;83.50;;;;;;5036732;28;20033;-80
2021/11/15 05:48:00;;;;;;;63.83;20.40;;;9.20;83.90;;;;;;5072322;28;20408;-81
2021/11/15 05:50:28;;;;;;;53.53;20.88;;;9.10;84.40;;;;;;5062128;28;20025;-85
2021/11/15 05:52:55;;;;;;;54.70;19.90;;;9.10;84.50;;;;;;5052403;28;20037;-87
2021/11/15 05:55:34;;;;;;;56.97;20.10;;;9.20;84.30;;;;;;5053148;28;20067;-87
2021/11/15 05:58:00;;;;;;;61.65;21.50;;;9.20;84.20;;;;;;5068811;28;20113;-88
2021/11/15 06:00:30;;;;;;;54.42;19.02;;;9.30;84.20;;;;;;5051685;28;20134;-85
2021/11/15 06:02:56;;;;;;;58.05;17.90;;;9.20;83.90;;;;;;5054626;28;20388;-88
2021/11/15 06:05:22;;;;;;;51.67;19.02;;;9.20;83.80;;;;;;5052513;28;20057;-89
2021/11/15 06:07:49;;;;;;;57.28;20.67;;;9.20;83.60;;;;;;5073652;28;20036;-91
2021/11/15 06:10:16;;;;;;;54.15;20.25;;;9.30;83.50;;;;;;5052393;28;20116;-89
2021/11/15 06:12:57;;;;;;;54.97;19.52;;;9.20;83.60;;;;;;5052384;28;20043;-80
2021/11/15 06:15:23;;;;;;;56.53;18.80;;;9.20;83.40;;;;;;5084304;28;20045;-81
2021/11/15 06:17:50;;;;;;;55.95;21.30;;;9.20;83.40;;;;;;5051900;28;20404;-84
2021/11/15 06:20:16;;;;;;;61.83;17.92;;;9.20;83.20;;;;;;5068750;28;20390;-86
2021/11/15 06:22:43;;;;;;;51.70;16.52;;;9.20;83.00;;;;;;5071981;28;20587;-86
2021/11/15 06:25:11;;;;;;;52.13;17.58;;;9.30;82.70;;;;;;5072671;28;20028;-81
2021/11/15 06:27:37;;;;;;;49.88;18.58;;;9.30;82.50;;;;;;5058036;28;20044;-77
2021/11/15 06:30:06;;;;;;;49.55;18.45;;;9.30;82.40;;;;;;5051736;28;20104;-79
2021/11/15 06:32:32;;;;;;;51.95;18.52;;;9.30;82.30;;;;;;5051343;28;20444;-79
2021/11/15 06:34:58;;;;;;;53.60;18.63;;;9.30;82.20;;;;;;5057780;28;20021;-83
2021/11/15 06:37:25;;;;;;;52.88;17.80;;;9.30;82.00;;;;;;5070148;28;20067;-80
2021/11/15 06:39:51;;;;;;;49.83;18.23;;;9.30;81.90;;;;;;5071342;28;20027;-80
2021/11/15 06:42:17;;;;;;;62.65;19.05;;;9.30;81.90;;;;;;5065842;28;20029;-81
2021/11/15 06:44:43;;;;;;;55.22;18.83;;;9.20;81.90;;;;;;5066259;28;20044;-78
2021/11/15 06:47:09;;;;;;;51.08;18.73;;;9.20;82.00;;;;;;5058035;28;20057;-81
2021/11/15 06:49:35;;;;;;;47.75;18.33;;;9.10;81.70;;;;;;5051092;28;20026;-78
2021/11/15 06:52:01;;;;;;;57.92;20.65;;;9.20;82.10;;;;;;5056064;28;20407;-78
2021/11/15 06:54:27;;;;;;;52.08;18.15;;;9.20;82.00;;;;;;5070968;28;20021;-79
2021/11/15 06:56:53;;;;;;;47.13;18.70;;;9.20;81.90;;;;;;5069140;28;20490;-79
2021/11/15 06:59:19;;;;;;;51.63;16.70;;;9.10;81.90;;;;;;5051293;28;20029;-79
2021/11/15 07:01:45;;;;;;;52.35;18.52;;;9.10;81.90;;;;;;5054246;28;20697;-77
2021/11/15 07:04:11;;;;;;;55.47;19.73;;;9.10;81.60;;;;;;5056798;28;20025;-77
2021/11/15 07:06:39;;;;;;;52.50;18.65;;;8.90;81.90;;;;;;5060009;28;20452;-79
2021/11/15 07:09:07;;;;;;;54.85;17.88;;;8.80;82.30;;;;;;5070855;28;20017;-77
2021/11/15 07:11:34;;;;;;;54.95;20.23;;;8.80;82.60;;;;;;5040717;28;20026;-77
2021/11/15 07:14:01;;;;;;;48.95;17.80;;;8.70;82.60;;;;;;5040688;28;20064;-77
2021/11/15 07:16:27;;;;;;;52.70;18.52;;;8.70;82.40;;;;;;5051898;28;20083;-78
2021/11/15 07:18:53;;;;;;;51.90;18.35;;;8.70;82.40;;;;;;5037436;28;20492;-77
2021/11/15 07:21:24;;;;;;;45.65;17.52;;;8.60;82.80;;;;;;5037044;28;20026;-77
2021/11/15 07:23:49;;;;;;;;;;;8.60;82.80;;;;;;5037624;28;20092;-77
2021/11/15 07:26:15;;;;;;;45.47;16.00;;;8.60;82.90;;;;;;5036735;28;20340;-79
2021/11/15 07:28:42;;;;;;;47.78;19.55;;;8.70;82.70;;;;;;5037193;28;20030;-79
2021/11/15 07:31:09;;;;;;;50.28;18.88;;;8.70;82.50;;;;;;5037111;28;20100;-77
2021/11/15 07:33:34;;;;;;;50.00;18.67;;;8.70;82.30;;;;;;5037170;28;20025;-79
2021/11/15 07:36:00;;;;;;;45.30;17.20;;;8.60;82.30;;;;;;5037293;28;20040;-79
2021/11/15 07:38:26;;;;;;;52.47;19.55;;;8.60;83.20;;;;;;5037073;28;20025;-79
2021/11/15 07:40:52;;;;;;;49.60;16.92;;;8.60;83.00;;;;;;5036861;28;20036;-79
2021/11/15 07:43:19;;;;;;;46.05;17.80;;;8.60;82.60;;;;;;5044001;28;20033;-79
2021/11/15 07:45:44;;;;;;;46.67;17.70;;;8.50;83.20;;;;;;5056182;28;20025;-79
2021/11/15 07:48:11;;;;;;;46.80;17.17;;;8.50;83.00;;;;;;5040109;28;20036;-79
2021/11/15 07:50:37;;;;;;;48.58;17.38;;;8.70;82.90;;;;;;5036590;28;20104;-79
2021/11/15 07:53:04;;;;;;;52.38;18.45;;;8.80;82.40;;;;;;5036773;28;20021;-79
2021/11/15 07:55:29;;;;;;;40.92;17.48;;;8.90;82.00;;;;;;5068724;28;20033;-79
2021/11/15 07:57:56;;;;;;;45.88;17.92;;;9.00;81.60;;;;;;5068636;28;20051;-79
2021/11/15 08:00:23;;;;;;;42.85;17.67;;;9.00;81.60;;;;;;5068588;28;20227;-79
2021/11/15 08:02:49;;;;;;;50.92;16.15;;;9.00;81.40;;;;;;5035921;28;20022;-79
2021/11/15 08:05:17;;;;;;;44.63;16.90;;;9.10;81.20;;;;;;5035261;28;20167;-79
2021/11/15 08:07:43;;;;;;;42.00;18.23;;;9.20;81.10;;;;;;5039577;28;20092;-79
2021/11/15 08:10:11;;;;;;;40.25;15.70;;;9.20;81.10;;;;;;5035289;28;20594;-76
2021/11/15 08:12:49;;;;;;;54.53;20.33;;;9.10;81.10;;;;;;5036417;28;20030;-76
2021/11/15 08:15:16;;;;;;;50.53;22.13;;;9.00;81.50;;;;;;5036447;28;20044;-78
2021/11/15 08:17:45;;;;;;;61.72;26.40;;;8.90;81.50;;;;;;5034888;28;20120;-79
2021/11/15 08:20:20;;;;;;;51.15;21.67;;;8.70;82.70;;;;;;5035860;28;20033;-79
2021/11/15 08:22:47;;;;;;;45.28;18.88;;;8.80;82.70;;;;;;5036041;28;20048;-79
2021/11/15 08:25:51;;;;;;;40.90;15.98;;;9.00;82.50;;;;;;5067915;28;20038;-79
2021/11/15 08:28:17;;;;;;;43.03;16.23;;;9.10;82.40;;;;;;5036062;28;20057;-79
2021/11/15 08:30:43;;;;;;;51.05;18.38;;;9.20;82.10;;;;;;5035906;28;20033;-79
2021/11/15 08:33:11;;;;;;;38.42;15.55;;;9.30;81.60;;;;;;5037102;28;20025;-80
2021/11/15 08:35:37;;;;;;;37.72;16.17;;;9.30;81.80;;;;;;5055791;28;20052;-79
2021/11/15 08:38:15;;;;;;;45.30;17.75;;;9.30;81.70;;;;;;5053941;28;20071;-79
2021/11/15 08:40:51;;;;;;;41.95;16.58;;;9.30;81.80;;;;;;5052961;28;20086;-76
2021/11/15 08:43:19;;;;;;;40.00;16.10;;;9.50;81.80;;;;;;5055614;28;20033;-79
2021/11/15 08:45:45;;;;;;;45.30;18.25;;;9.60;81.60;;;;;;5055399;28;20430;-79
2021/11/15 08:48:12;;;;;;;41.97;15.63;;;9.70;81.40;;;;;;5054301;28;20028;-79
2021/11/15 08:50:38;;;;;;;44.42;15.75;;;9.70;81.30;;;;;;5054362;28;20017;-79
2021/11/15 08:53:04;;;;;;;41.00;16.67;;;9.80;81.10;;;;;;5045552;28;20033;-79
2021/11/15 08:55:30;;;;;;;50.25;19.52;;;9.90;81.20;;;;;;5035431;28;20452;-79
2021/11/15 08:57:58;;;;;;;43.80;17.55;;;9.90;80.90;;;;;;5067567;28;20112;-79
2021/11/15 09:00:24;;;;;;;39.20;16.23;;;10.00;81.00;;;;;;5035263;28;20025;-77
2021/11/15 09:02:49;;;;;;;38.53;18.00;;;10.20;80.90;;;;;;5035344;28;20033;-78
2021/11/15 09:05:15;;;;;;;39.83;15.02;;;10.40;80.40;;;;;;5035213;28;20049;-79
2021/11/15 09:07:41;;;;;;;36.75;17.08;;;10.80;78.90;;;;;;5041296;28;20041;-79
2021/11/15 09:10:09;;;;;;;36.05;20.42;;;11.60;77.30;;;;;;5035434;28;20017;-76
2021/11/15 09:12:36;;;;;;;36.15;21.15;;;12.50;73.80;;;;;;5034954;28;20033;-77
2021/11/15 09:15:04;;;;;;;34.58;20.67;;;13.20;71.40;;;;;;5034915;28;20029;-77
2021/11/15 09:17:29;;;;;;;34.05;19.73;;;13.70;69.70;;;;;;5035063;28;20075;-77
2021/11/15 09:19:55;;;;;;;26.20;16.35;;;14.00;68.50;;;;;;5035171;28;20021;-77
2021/11/15 09:22:21;;;;;;;37.70;20.23;;;14.00;68.00;;;;;;5034979;28;20388;-77
2021/11/15 09:24:48;;;;;;;45.53;25.38;;;13.70;68.50;;;;;;5047908;28;20073;-77
2021/11/15 09:27:15;;;;;;;36.33;19.10;;;13.20;69.30;;;;;;5054957;28;20048;-77
2021/11/15 09:29:44;;;;;;;34.10;20.83;;;12.90;70.30;;;;;;5054860;28;20447;-77
2021/11/15 09:32:10;;;;;;;30.40;18.70;;;12.80;70.90;;;;;;5045028;28;20171;-76
2021/11/15 09:34:40;;;;;;;28.00;17.15;;;13.00;71.30;;;;;;5034954;28;20072;-77
2021/11/15 09:37:08;;;;;;;27.20;13.88;;;13.20;71.00;;;;;;5067190;28;20037;-79
2021/11/15 09:39:34;;;;;;;24.65;12.65;;;13.10;71.60;;;;;;5034793;28;20029;-77
2021/11/15 09:42:00;;;;;;;27.50;13.57;;;13.00;72.00;;;;;;5034955;28;20038;-77
2021/11/15 09:44:26;;;;;;;27.80;13.52;;;12.80;72.50;;;;;;5051109;28;20025;-79
2021/11/15 09:46:52;;;;;;;30.92;13.20;;;12.70;72.90;;;;;;5038806;28;20060;-77
2021/11/15 09:49:18;;;;;;;31.25;13.10;;;12.30;73.80;;;;;;5034831;28;20503;-79
2021/11/15 09:51:47;;;;;;;30.27;14.80;;;12.30;74.30;;;;;;5066920;28;20045;-77
2021/11/15 09:54:15;;;;;;;29.30;13.73;;;12.30;74.50;;;;;;5034719;28;20044;-77
2021/11/15 09:56:41;;;;;;;29.95;13.13;;;12.30;74.70;;;;;;5034735;28;20033;-78
2021/11/15 09:59:10;;;;;;;35.03;13.90;;;12.10;74.60;;;;;;5066829;28;20065;-79
2021/11/15 10:01:37;;;;;;;29.70;14.45;;;12.10;74.70;;;;;;5033397;28;20037;-77
2021/11/15 10:04:03;;;;;;;31.67;12.70;;;12.00;75.00;;;;;;5034635;28;20041;-79
2021/11/15 10:06:29;;;;;;;37.30;15.27;;;11.90;75.20;;;;;;5042166;28;20033;-77
2021/11/15 10:08:57;;;;;;;39.00;15.88;;;12.00;74.60;;;;;;5074291;28;20029;-76
2021/11/15 10:11:25;;;;;;;32.83;15.07;;;11.90;75.00;;;;;;5064072;28;20089;-77
2021/11/15 10:13:53;;;;;;;36.92;14.23;;;11.90;74.90;;;;;;5034649;28;20990;-76
2021/11/15 10:16:23;;;;;;;34.75;15.50;;;12.00;75.20;;;;;;5033418;28;20041;-77
2021/11/15 10:18:59;;;;;;;32.45;14.02;;;12.10;75.20;;;;;;5034474;28;20029;-77
2021/11/15 10:21:42;;;;;;;34.53;14.70;;;12.20;75.10;;;;;;5033199;28;20101;-79
2021/11/15 10:24:10;;;;;;;31.60;14.30;;;12.20;75.10;;;;;;5047830;28;20495;-79
2021/11/15 10:26:57;;;;;;;32.72;13.93;;;12.20;74.60;;;;;;5054338;28;20040;-78
2021/11/15 10:29:27;;;;;;;33.08;14.85;;;12.20;74.70;;;;;;5054222;28;20075;-79
2021/11/15 10:31:54;;;;;;;;;;;12.20;74.60;;;;;;5048588;28;20032;-77
2021/11/15 10:34:35;;;;;;;34.92;14.18;;;12.30;74.20;;;;;;5037268;28;20311;-76
2021/11/15 10:37:00;;;;;;;;;;;12.30;73.80;;;;;;5038721;28;20364;-79
2021/11/15 10:39:49;;;;;;;32.13;13.50;;;12.30;74.10;;;;;;5038165;28;20019;-79
2021/11/15 10:42:16;;;;;;;31.52;13.50;;;12.30;73.80;;;;;;5040160;28;20691;-78
2021/11/15 10:45:03;;;;;;;31.92;14.00;;;12.40;74.00;;;;;;5044315;28;20585;-79
2021/11/15 10:47:44;;;;;;;27.25;14.13;;;12.40;73.80;;;;;;5057504;28;20508;-79
2021/11/15 10:50:11;;;;;;;39.83;15.75;;;12.30;73.50;;;;;;5057987;28;20052;-79
2021/11/15 10:52:41;;;;;;;34.95;14.80;;;12.40;73.70;;;;;;5058105;28;20071;-79
2021/11/15 10:55:08;;;;;;;33.00;15.47;;;12.40;73.10;;;;;;5044023;28;20488;-79
2021/11/15 10:57:35;;;;;;;27.90;13.60;;;12.40;73.40;;;;;;5036425;28;20275;-79
2021/11/15 11:00:07;;;;;;;33.75;15.10;;;12.40;73.40;;;;;;5037639;28;20037;-78
2021/11/15 11:02:42;;;;;;;30.05;14.80;;;12.40;73.60;;;;;;5037785;28;20535;-79
2021/11/15 11:05:27;;;;;;;34.15;14.65;;;12.50;73.00;;;;;;5037431;28;20021;-79
2021/11/15 11:08:15;;;;;;;32.28;15.95;;;12.60;73.20;;;;;;5068815;28;20086;-79
2021/11/15 11:10:59;;;;;;;32.20;14.40;;;12.70;73.00;;;;;;5076032;28;20076;-78
2021/11/15 11:13:31;;;;;;;30.65;14.40;;;12.80;72.40;;;;;;5037534;28;20378;-79
2021/11/15 11:15:57;;;;;;;35.25;14.95;;;12.70;73.00;;;;;;5037067;28;20105;-78
2021/11/15 11:18:51;;;;;;;30.85;13.90;;;12.80;72.70;;;;;;5037615;28;20068;-79
2021/11/15 11:24:32;;;;;;;30.42;14.45;;;12.80;72.00;;;;;;5036576;28;20112;-79
2021/11/15 11:27:02;;;;;;;31.48;14.90;;;12.80;71.90;;;;;;5069119;28;20048;-79
2021/11/15 11:29:35;;;;;;;35.42;17.10;;;12.80;72.70;;;;;;5037279;28;20022;-79
2021/11/15 11:32:05;;;;;;;35.60;14.95;;;12.80;72.50;;;;;;5037171;28;20022;-79
2021/11/15 11:34:31;;;;;;;;;;;12.80;72.50;;;;;;5037192;28;20058;-79
2021/11/15 11:36:57;;;;;;;31.15;13.57;;;12.90;71.90;;;;;;5037003;28;19909;-79
2021/11/15 11:39:24;;;;;;;30.75;13.52;;;12.90;71.70;;;;;;5037188;28;20518;-78
2021/11/15 11:41:54;;;;;;;32.63;16.05;;;12.90;71.30;;;;;;5036889;28;20372;-79
2021/11/15 11:44:22;;;;;;;29.67;14.02;;;12.90;72.30;;;;;;5052338;28;20017;-79
2021/11/15 11:46:48;;;;;;;29.15;13.35;;;13.00;71.60;;;;;;5053225;28;20049;-79
2021/11/15 11:49:18;;;;;;;32.28;14.07;;;12.90;71.30;;;;;;5036928;28;20021;-82
2021/11/15 11:51:47;;;;;;;32.33;15.00;;;12.80;72.10;;;;;;5036237;28;20053;-79
2021/11/15 11:54:20;;;;;;;32.55;14.75;;;12.90;72.00;;;;;;5036750;28;20030;-80
2021/11/15 11:57:16;;;;;;;37.70;15.43;;;12.90;71.30;;;;;;5036514;28;20512;-81
2021/11/15 11:59:46;;;;;;;36.35;15.88;;;13.00;71.90;;;;;;5037996;28;20091;-88
2021/11/15 12:02:18;;;;;;;31.45;14.15;;;13.10;71.10;;;;;;5068515;28;20504;-85
2021/11/15 12:04:58;;;;;;;34.97;15.05;;;13.10;70.60;;;;;;5036436;28;20476;-83
2021/11/15 12:07:32;;;;;;;32.20;13.98;;;13.10;70.20;;;;;;5054942;28;20028;-81
2021/11/15 12:10:00;;;;;;;31.05;13.95;;;13.20;70.30;;;;;;5036102;28;20026;-82
2021/11/15 12:12:26;;;;;;;34.45;15.38;;;13.20;71.00;;;;;;5036339;28;20026;-79
2021/11/15 12:14:52;;;;;;;34.72;15.65;;;13.20;69.80;;;;;;5036342;28;20076;-79
2021/11/15 12:17:21;;;;;;;33.53;15.85;;;13.30;70.30;;;;;;5036281;28;20029;-77
2021/11/15 12:19:55;;;;;;;34.70;15.00;;;13.30;69.20;;;;;;5036437;28;20500;-78
2021/11/15 12:22:25;;;;;;;32.90;13.93;;;13.30;69.60;;;;;;5036022;28;20041;-78
2021/11/15 12:25:17;;;;;;;29.88;12.68;;;13.30;69.30;;;;;;5036170;28;20036;-81
2021/11/15 12:28:00;;;;;;;29.65;13.73;;;13.30;69.00;;;;;;5032021;28;20480;-82
2021/11/15 12:30:31;;;;;;;27.02;12.50;;;13.30;68.70;;;;;;5036249;28;20025;-82
2021/11/15 12:33:19;;;;;;;38.40;15.50;;;13.20;69.10;;;;;;5035659;28;20041;-82
2021/11/15 12:36:00;;;;;;;42.40;19.15;;;13.20;69.60;;;;;;5036104;28;20048;-79
2021/11/15 12:38:46;;;;;;;29.63;13.35;;;13.20;69.60;;;;;;5053080;28;20029;-80
2021/11/15 12:41:18;;;;;;;26.85;13.73;;;13.30;69.40;;;;;;5055893;28;20656;-82
2021/11/15 12:44:05;;;;;;;30.73;14.63;;;13.30;69.20;;;;;;5054608;28;20051;-85
2021/11/15 12:46:44;;;;;;;26.70;12.93;;;13.50;69.20;;;;;;5055748;28;20438;-84
2021/11/15 12:49:35;;;;;;;27.55;12.57;;;13.60;69.40;;;;;;5044758;28;20025;-84